sensor_id;sensor_type;location;lat;lon;timestamp;pressure;altitude;pressure_sealevel;temperature;humidity
41250;BME280;26984;59.928;30.306;2023-02-03T00:00:02;100512.13;;;2.83;100.00
41250;BME280;26984;59.928;30.306;2023-02-03T00:02:37;100511.78;;;2.86;100.00
41250;BME280;26984;59.928;30.306;2023-02-03T00:05:05;100509.09;;;2.95;100.00
41250;BME280;26984;59.928;30.306;2023-02-03T00:07:32;100506.66;;;2.69;100.00
41250;BME280;26984;59.928;30.306;2023-02-03T00:10:01;100507.34;;;2.46;100.00
41250;BME280;26984;59.928;30.306;2023-02-03T00:12:30;100499.03;;;2.16;100.00
41250;BME280;26984;59.928;30.306;2023-02-03T00:14:58;100503.97;;;1.87;100.00
41250;BME280;26984;59.928;30.306;2023-02-03T00:17:25;100500.31;;;1.88;100.00
41250;BME280;26984;59.928;30.306;2023-02-03T00:19:52;100501.31;;;1.87;100.00
41250;BME280;26984;59.928;30.306;2023-02-03T00:22:20;100495.00;;;1.88;100.00
41250;BME280;26984;59.928;30.306;2023-02-03T00:24:47;100501.19;;;2.05;100.00
41250;BME280;26984;59.928;30.306;2023-02-03T00:27:15;100502.00;;;1.97;100.00
41250;BME280;26984;59.928;30.306;2023-02-03T00:29:44;100500.16;;;2.06;100.00
41250;BME280;26984;59.928;30.306;2023-02-03T00:32:11;100497.97;;;1.77;100.00
41250;BME280;26984;59.928;30.306;2023-02-03T00:34:42;100496.69;;;1.89;100.00
41250;BME280;26984;59.928;30.306;2023-02-03T00:37:10;100488.22;;;1.85;100.00
41250;BME280;26984;59.928;30.306;2023-02-03T00:39:38;100497.88;;;2.11;100.00
41250;BME280;26984;59.928;30.306;2023-02-03T00:42:06;100498.69;;;2.20;100.00
41250;BME280;26984;59.928;30.306;2023-02-03T00:44:33;100505.88;;;2.35;100.00
41250;BME280;26984;59.928;30.306;2023-02-03T00:47:02;100503.50;;;2.08;100.00
41250;BME280;26984;59.928;30.306;2023-02-03T00:49:29;100502.81;;;1.89;100.00
41250;BME280;26984;59.928;30.306;2023-02-03T00:51:57;100507.06;;;1.74;100.00
41250;BME280;26984;59.928;30.306;2023-02-03T00:54:24;100508.22;;;1.63;100.00
41250;BME280;26984;59.928;30.306;2023-02-03T00:56:52;100514.75;;;1.35;100.00
41250;BME280;26984;59.928;30.306;2023-02-03T00:59:19;100508.09;;;1.31;100.00
41250;BME280;26984;59.928;30.306;2023-02-03T01:01:47;100512.38;;;1.24;100.00
41250;BME280;26984;59.928;30.306;2023-02-03T01:04:17;100513.78;;;1.10;100.00
41250;BME280;26984;59.928;30.306;2023-02-03T01:06:44;100506.78;;;1.01;100.00
41250;BME280;26984;59.928;30.306;2023-02-03T01:09:15;100517.19;;;0.94;100.00
41250;BME280;26984;59.928;30.306;2023-02-03T01:11:43;100504.72;;;0.86;100.00
41250;BME280;26984;59.928;30.306;2023-02-03T01:14:10;100503.91;;;0.86;100.00
41250;BME280;26984;59.928;30.306;2023-02-03T01:16:38;100512.59;;;0.78;100.00
41250;BME280;26984;59.928;30.306;2023-02-03T01:19:05;100514.94;;;0.81;100.00
41250;BME280;26984;59.928;30.306;2023-02-03T01:21:34;100516.78;;;0.81;100.00
41250;BME280;26984;59.928;30.306;2023-02-03T01:24:02;100521.78;;;0.84;100.00
41250;BME280;26984;59.928;30.306;2023-02-03T01:26:30;100510.75;;;0.97;100.00
41250;BME280;26984;59.928;30.306;2023-02-03T01:28:58;100510.16;;;0.85;100.00
41250;BME280;26984;59.928;30.306;2023-02-03T01:31:26;100514.38;;;0.69;100.00
41250;BME280;26984;59.928;30.306;2023-02-03T01:33:54;100511.41;;;0.46;100.00
41250;BME280;26984;59.928;30.306;2023-02-03T01:36:23;100513.00;;;0.39;100.00
41250;BME280;26984;59.928;30.306;2023-02-03T01:38:53;100511.09;;;0.32;100.00
41250;BME280;26984;59.928;30.306;2023-02-03T01:41:22;100513.53;;;0.43;100.00
41250;BME280;26984;59.928;30.306;2023-02-03T01:43:52;100511.78;;;0.34;100.00
41250;BME280;26984;59.928;30.306;2023-02-03T01:46:27;100507.63;;;0.31;100.00
41250;BME280;26984;59.928;30.306;2023-02-03T01:48:58;100504.91;;;0.23;100.00
41250;BME280;26984;59.928;30.306;2023-02-03T01:51:28;100503.84;;;0.34;100.00
41250;BME280;26984;59.928;30.306;2023-02-03T01:53:57;100505.19;;;0.38;100.00
41250;BME280;26984;59.928;30.306;2023-02-03T01:56:26;100509.75;;;0.28;100.00
41250;BME280;26984;59.928;30.306;2023-02-03T01:58:54;100500.66;;;0.30;100.00
41250;BME280;26984;59.928;30.306;2023-02-03T02:01:23;100509.69;;;0.19;100.00
41250;BME280;26984;59.928;30.306;2023-02-03T02:03:52;100503.03;;;-0.03;100.00
41250;BME280;26984;59.928;30.306;2023-02-03T02:06:21;100512.63;;;-0.02;100.00
41250;BME280;26984;59.928;30.306;2023-02-03T02:08:50;100507.03;;;-0.16;100.00
41250;BME280;26984;59.928;30.306;2023-02-03T02:11:19;100512.16;;;-0.15;100.00
41250;BME280;26984;59.928;30.306;2023-02-03T02:13:47;100511.03;;;-0.12;100.00
41250;BME280;26984;59.928;30.306;2023-02-03T02:16:17;100513.59;;;-0.20;100.00
41250;BME280;26984;59.928;30.306;2023-02-03T02:18:54;100512.81;;;-0.31;100.00
41250;BME280;26984;59.928;30.306;2023-02-03T02:24:15;100520.88;;;-0.50;100.00
41250;BME280;26984;59.928;30.306;2023-02-03T02:26:51;100525.41;;;-0.60;100.00
41250;BME280;26984;59.928;30.306;2023-02-03T02:32:07;100516.06;;;-0.64;100.00
41250;BME280;26984;59.928;30.306;2023-02-03T02:34:42;100516.06;;;-0.64;100.00
41250;BME280;26984;59.928;30.306;2023-02-03T02:37:16;100520.81;;;-0.68;100.00
41250;BME280;26984;59.928;30.306;2023-02-03T02:39:47;100529.81;;;-0.61;100.00
41250;BME280;26984;59.928;30.306;2023-02-03T02:42:21;100526.03;;;-0.86;100.00
41250;BME280;26984;59.928;30.306;2023-02-03T02:44:51;100530.78;;;-0.89;100.00
41250;BME280;26984;59.928;30.306;2023-02-03T02:47:23;100519.06;;;-0.77;100.00
41250;BME280;26984;59.928;30.306;2023-02-03T02:49:53;100523.25;;;-0.84;100.00
41250;BME280;26984;59.928;30.306;2023-02-03T02:52:23;100519.19;;;-0.79;100.00
41250;BME280;26984;59.928;30.306;2023-02-03T02:54:55;100524.00;;;-0.92;100.00
41250;BME280;26984;59.928;30.306;2023-02-03T02:57:25;100524.53;;;-0.88;100.00
41250;BME280;26984;59.928;30.306;2023-02-03T02:59:53;100522.19;;;-1.01;100.00
41250;BME280;26984;59.928;30.306;2023-02-03T03:02:20;100534.97;;;-0.97;100.00
41250;BME280;26984;59.928;30.306;2023-02-03T03:04:49;100532.66;;;-1.00;100.00
41250;BME280;26984;59.928;30.306;2023-02-03T03:07:19;100535.72;;;-1.04;100.00
41250;BME280;26984;59.928;30.306;2023-02-03T03:09:49;100537.09;;;-1.00;100.00
41250;BME280;26984;59.928;30.306;2023-02-03T03:12:18;100532.50;;;-1.08;100.00
41250;BME280;26984;59.928;30.306;2023-02-03T03:14:49;100539.72;;;-1.00;100.00
41250;BME280;26984;59.928;30.306;2023-02-03T03:17:19;100532.53;;;-1.17;100.00
41250;BME280;26984;59.928;30.306;2023-02-03T03:19:51;100533.06;;;-1.14;100.00
41250;BME280;26984;59.928;30.306;2023-02-03T03:22:21;100537.97;;;-1.19;100.00
41250;BME280;26984;59.928;30.306;2023-02-03T03:24:51;100528.09;;;-1.17;100.00
41250;BME280;26984;59.928;30.306;2023-02-03T03:27:23;100539.63;;;-1.08;100.00
41250;BME280;26984;59.928;30.306;2023-02-03T03:29:52;100531.28;;;-1.13;100.00
41250;BME280;26984;59.928;30.306;2023-02-03T03:32:21;100530.22;;;-1.30;100.00
41250;BME280;26984;59.928;30.306;2023-02-03T03:34:50;100534.56;;;-1.49;100.00
41250;BME280;26984;59.928;30.306;2023-02-03T03:37:19;100534.41;;;-1.57;100.00
41250;BME280;26984;59.928;30.306;2023-02-03T03:39:50;100540.09;;;-1.71;100.00
41250;BME280;26984;59.928;30.306;2023-02-03T03:42:22;100543.88;;;-1.83;100.00
41250;BME280;26984;59.928;30.306;2023-02-03T03:44:52;100543.59;;;-1.90;100.00
41250;BME280;26984;59.928;30.306;2023-02-03T03:47:23;100544.84;;;-1.94;100.00
41250;BME280;26984;59.928;30.306;2023-02-03T03:49:55;100545.38;;;-2.00;100.00
41250;BME280;26984;59.928;30.306;2023-02-03T03:52:25;100544.13;;;-2.06;100.00
41250;BME280;26984;59.928;30.306;2023-02-03T03:54:55;100548.47;;;-1.95;100.00
41250;BME280;26984;59.928;30.306;2023-02-03T03:57:24;100552.34;;;-1.89;100.00
41250;BME280;26984;59.928;30.306;2023-02-03T03:59:53;100548.31;;;-1.84;100.00
41250;BME280;26984;59.928;30.306;2023-02-03T04:02:21;100548.59;;;-2.06;100.00
41250;BME280;26984;59.928;30.306;2023-02-03T04:04:49;100555.91;;;-2.10;100.00
41250;BME280;26984;59.928;30.306;2023-02-03T04:07:18;100551.63;;;-2.11;100.00
41250;BME280;26984;59.928;30.306;2023-02-03T04:09:46;100549.50;;;-2.17;100.00
41250;BME280;26984;59.928;30.306;2023-02-03T04:12:15;100554.53;;;-2.14;100.00
41250;BME280;26984;59.928;30.306;2023-02-03T04:14:46;100559.38;;;-2.19;100.00
41250;BME280;26984;59.928;30.306;2023-02-03T04:17:13;100558.69;;;-2.31;100.00
41250;BME280;26984;59.928;30.306;2023-02-03T04:19:41;100555.59;;;-2.36;100.00
41250;BME280;26984;59.928;30.306;2023-02-03T04:22:09;100554.09;;;-2.29;100.00
41250;BME280;26984;59.928;30.306;2023-02-03T04:24:37;100555.84;;;-2.39;100.00
41250;BME280;26984;59.928;30.306;2023-02-03T04:27:05;100559.50;;;-2.30;100.00
41250;BME280;26984;59.928;30.306;2023-02-03T04:29:32;100565.88;;;-2.33;100.00
41250;BME280;26984;59.928;30.306;2023-02-03T04:32:00;100566.84;;;-2.34;100.00
41250;BME280;26984;59.928;30.306;2023-02-03T04:34:27;100568.09;;;-2.38;100.00
41250;BME280;26984;59.928;30.306;2023-02-03T04:36:55;100573.22;;;-2.36;100.00
41250;BME280;26984;59.928;30.306;2023-02-03T04:39:22;100571.00;;;-2.41;100.00
41250;BME280;26984;59.928;30.306;2023-02-03T04:41:51;100564.59;;;-2.38;100.00
41250;BME280;26984;59.928;30.306;2023-02-03T04:44:19;100574.50;;;-2.31;100.00
41250;BME280;26984;59.928;30.306;2023-02-03T04:46:46;100568.38;;;-2.31;100.00
41250;BME280;26984;59.928;30.306;2023-02-03T04:49:14;100575.81;;;-2.46;100.00
41250;BME280;26984;59.928;30.306;2023-02-03T04:51:42;100578.72;;;-2.49;100.00
41250;BME280;26984;59.928;30.306;2023-02-03T04:54:10;100574.31;;;-2.49;100.00
41250;BME280;26984;59.928;30.306;2023-02-03T04:56:38;100577.22;;;-2.52;100.00
41250;BME280;26984;59.928;30.306;2023-02-03T04:59:07;100577.72;;;-2.58;100.00
41250;BME280;26984;59.928;30.306;2023-02-03T05:01:34;100575.09;;;-2.58;100.00
41250;BME280;26984;59.928;30.306;2023-02-03T05:04:02;100578.56;;;-2.57;100.00
41250;BME280;26984;59.928;30.306;2023-02-03T05:06:30;100583.06;;;-2.48;100.00
41250;BME280;26984;59.928;30.306;2023-02-03T05:09:02;100579.84;;;-2.52;100.00
41250;BME280;26984;59.928;30.306;2023-02-03T05:11:33;100585.22;;;-2.63;100.00
41250;BME280;26984;59.928;30.306;2023-02-03T05:14:00;100579.50;;;-2.68;100.00
41250;BME280;26984;59.928;30.306;2023-02-03T05:16:29;100583.06;;;-2.79;100.00
41250;BME280;26984;59.928;30.306;2023-02-03T05:18:57;100582.16;;;-2.89;100.00
41250;BME280;26984;59.928;30.306;2023-02-03T05:21:24;100586.50;;;-2.88;100.00
41250;BME280;26984;59.928;30.306;2023-02-03T05:23:52;100592.44;;;-2.86;100.00
41250;BME280;26984;59.928;30.306;2023-02-03T05:26:20;100588.66;;;-2.93;100.00
41250;BME280;26984;59.928;30.306;2023-02-03T05:28:47;100593.38;;;-2.97;100.00
41250;BME280;26984;59.928;30.306;2023-02-03T05:31:15;100591.03;;;-2.90;100.00
41250;BME280;26984;59.928;30.306;2023-02-03T05:33:44;100587.00;;;-2.94;100.00
41250;BME280;26984;59.928;30.306;2023-02-03T05:36:11;100583.41;;;-2.93;100.00
41250;BME280;26984;59.928;30.306;2023-02-03T05:38:39;100592.94;;;-3.02;100.00
41250;BME280;26984;59.928;30.306;2023-02-03T05:41:08;100591.81;;;-2.99;100.00
41250;BME280;26984;59.928;30.306;2023-02-03T05:43:52;100585.34;;;-2.95;100.00
41250;BME280;26984;59.928;30.306;2023-02-03T05:46:20;100572.75;;;-3.13;100.00
41250;BME280;26984;59.928;30.306;2023-02-03T05:48:49;100592.94;;;-3.02;100.00
41250;BME280;26984;59.928;30.306;2023-02-03T05:51:16;100597.66;;;-2.96;100.00
41250;BME280;26984;59.928;30.306;2023-02-03T05:53:44;100589.50;;;-2.93;100.00
41250;BME280;26984;59.928;30.306;2023-02-03T05:56:12;100594.59;;;-3.01;100.00
41250;BME280;26984;59.928;30.306;2023-02-03T05:58:39;100594.19;;;-2.96;100.00
41250;BME280;26984;59.928;30.306;2023-02-03T06:01:07;100595.75;;;-2.94;100.00
41250;BME280;26984;59.928;30.306;2023-02-03T06:03:36;100599.78;;;-2.90;100.00
41250;BME280;26984;59.928;30.306;2023-02-03T06:06:05;100600.31;;;-2.96;100.00
41250;BME280;26984;59.928;30.306;2023-02-03T06:08:33;100600.31;;;-2.96;100.00
41250;BME280;26984;59.928;30.306;2023-02-03T06:11:00;100605.38;;;-3.04;100.00
41250;BME280;26984;59.928;30.306;2023-02-03T06:13:28;100603.00;;;-3.07;100.00
41250;BME280;26984;59.928;30.306;2023-02-03T06:15:55;100603.09;;;-3.18;100.00
41250;BME280;26984;59.928;30.306;2023-02-03T06:18:23;100591.72;;;-3.19;100.00
41250;BME280;26984;59.928;30.306;2023-02-03T06:20:50;100594.34;;;-3.19;100.00
41250;BME280;26984;59.928;30.306;2023-02-03T06:23:19;100599.22;;;-3.14;100.00
41250;BME280;26984;59.928;30.306;2023-02-03T06:25:47;100600.78;;;-3.11;100.00
41250;BME280;26984;59.928;30.306;2023-02-03T06:28:15;100608.53;;;-3.10;100.00
41250;BME280;26984;59.928;30.306;2023-02-03T06:30:43;100605.38;;;-3.04;100.00
41250;BME280;26984;59.928;30.306;2023-02-03T06:33:10;100604.56;;;-3.04;100.00
41250;BME280;26984;59.928;30.306;2023-02-03T06:35:38;100607.44;;;-3.07;100.00
41250;BME280;26984;59.928;30.306;2023-02-03T06:38:05;100608.69;;;-3.11;100.00
41250;BME280;26984;59.928;30.306;2023-02-03T06:40:34;100607.91;;;-3.23;100.00
41250;BME280;26984;59.928;30.306;2023-02-03T06:43:02;100606.81;;;-3.21;100.00
41250;BME280;26984;59.928;30.306;2023-02-03T06:45:29;100614.69;;;-3.21;100.00
41250;BME280;26984;59.928;30.306;2023-02-03T06:47:57;100610.06;;;-3.28;100.00
41250;BME280;26984;59.928;30.306;2023-02-03T06:50:24;100616.56;;;-3.32;100.00
41250;BME280;26984;59.928;30.306;2023-02-03T06:52:52;100612.22;;;-3.22;100.00
41250;BME280;26984;59.928;30.306;2023-02-03T06:55:19;100623.56;;;-3.22;100.00
41250;BME280;26984;59.928;30.306;2023-02-03T06:57:48;100630.19;;;-3.27;100.00
41250;BME280;26984;59.928;30.306;2023-02-03T07:00:17;100610.84;;;-3.38;100.00
41250;BME280;26984;59.928;30.306;2023-02-03T07:02:45;100624.09;;;-3.28;100.00
41250;BME280;26984;59.928;30.306;2023-02-03T07:05:12;100626.22;;;-3.22;100.00
41250;BME280;26984;59.928;30.306;2023-02-03T07:07:40;100625.06;;;-3.29;100.00
41250;BME280;26984;59.928;30.306;2023-02-03T07:10:08;100624.53;;;-3.44;100.00
41250;BME280;26984;59.928;30.306;2023-02-03T07:12:35;100630.88;;;-3.46;100.00
41250;BME280;26984;59.928;30.306;2023-02-03T07:15:04;100629.78;;;-3.44;100.00
41250;BME280;26984;59.928;30.306;2023-02-03T07:17:32;100628.75;;;-3.31;100.00
41250;BME280;26984;59.928;30.306;2023-02-03T07:20:00;100627.25;;;-3.34;100.00
41250;BME280;26984;59.928;30.306;2023-02-03T07:22:27;100630.38;;;-3.40;100.00
41250;BME280;26984;59.928;30.306;2023-02-03T07:24:55;100630.63;;;-3.43;100.00
41250;BME280;26984;59.928;30.306;2023-02-03T07:27:22;100641.41;;;-3.46;100.00
41250;BME280;26984;59.928;30.306;2023-02-03T07:29:50;100640.00;;;-3.50;100.00
41250;BME280;26984;59.928;30.306;2023-02-03T07:32:19;100644.22;;;-3.59;100.00
41250;BME280;26984;59.928;30.306;2023-02-03T07:34:46;100643.50;;;-3.61;100.00
41250;BME280;26984;59.928;30.306;2023-02-03T07:37:14;100637.75;;;-3.55;100.00
41250;BME280;26984;59.928;30.306;2023-02-03T07:39:41;100649.09;;;-3.54;100.00
41250;BME280;26984;59.928;30.306;2023-02-03T07:42:09;100644.75;;;-3.44;100.00
41250;BME280;26984;59.928;30.306;2023-02-03T07:44:42;100651.44;;;-3.40;100.00
41250;BME280;26984;59.928;30.306;2023-02-03T07:47:10;100647.16;;;-3.41;100.00
41250;BME280;26984;59.928;30.306;2023-02-03T07:49:39;100646.56;;;-3.45;100.00
41250;BME280;26984;59.928;30.306;2023-02-03T07:52:07;100645.06;;;-3.26;100.00
41250;BME280;26984;59.928;30.306;2023-02-03T07:54:35;100642.53;;;-3.28;100.00
41250;BME280;26984;59.928;30.306;2023-02-03T07:57:02;100641.44;;;-3.25;100.00
41250;BME280;26984;59.928;30.306;2023-02-03T07:59:30;100631.97;;;-3.28;100.00
41250;BME280;26984;59.928;30.306;2023-02-03T08:01:58;100632.72;;;-3.05;100.00
41250;BME280;26984;59.928;30.306;2023-02-03T08:04:25;100643.66;;;-3.09;100.00
41250;BME280;26984;59.928;30.306;2023-02-03T08:06:55;100644.16;;;-3.16;100.00
41250;BME280;26984;59.928;30.306;2023-02-03T08:09:23;100639.13;;;-3.19;100.00
41250;BME280;26984;59.928;30.306;2023-02-03T08:11:50;100639.25;;;-3.20;100.00
41250;BME280;26984;59.928;30.306;2023-02-03T08:14:18;100643.38;;;-3.06;100.00
41250;BME280;26984;59.928;30.306;2023-02-03T08:16:45;100639.41;;;-3.01;100.00
41250;BME280;26984;59.928;30.306;2023-02-03T08:19:13;100647.06;;;-2.98;100.00
41250;BME280;26984;59.928;30.306;2023-02-03T08:21:41;100636.59;;;-3.09;100.00
41250;BME280;26984;59.928;30.306;2023-02-03T08:24:10;100649.13;;;-3.01;100.00
41250;BME280;26984;59.928;30.306;2023-02-03T08:26:37;100650.09;;;-3.02;100.00
41250;BME280;26984;59.928;30.306;2023-02-03T08:29:05;100647.44;;;-3.02;100.00
41250;BME280;26984;59.928;30.306;2023-02-03T08:31:32;100646.22;;;-2.98;100.00
41250;BME280;26984;59.928;30.306;2023-02-03T08:34:00;100644.81;;;-3.02;100.00
41250;BME280;26984;59.928;30.306;2023-02-03T08:36:27;100650.19;;;-3.04;100.00
41250;BME280;26984;59.928;30.306;2023-02-03T08:38:55;100655.13;;;-3.10;100.00
41250;BME280;26984;59.928;30.306;2023-02-03T08:41:24;100663.78;;;-3.08;100.00
41250;BME280;26984;59.928;30.306;2023-02-03T08:43:51;100663.19;;;-3.12;100.00
41250;BME280;26984;59.928;30.306;2023-02-03T08:46:20;100660.81;;;-3.15;100.00
41250;BME280;26984;59.928;30.306;2023-02-03T08:48:48;100654.81;;;-3.17;100.00
41250;BME280;26984;59.928;30.306;2023-02-03T08:51:17;100634.44;;;-3.15;100.00
41250;BME280;26984;59.928;30.306;2023-02-03T08:53:45;100655.88;;;-2.87;100.00
41250;BME280;26984;59.928;30.306;2023-02-03T08:56:13;100657.91;;;-2.70;100.00
41250;BME280;26984;59.928;30.306;2023-02-03T08:58:42;100664.09;;;-2.81;100.00
41250;BME280;26984;59.928;30.306;2023-02-03T09:01:10;100655.47;;;-2.83;100.00
41250;BME280;26984;59.928;30.306;2023-02-03T09:03:55;100662.28;;;-3.01;100.00
41250;BME280;26984;59.928;30.306;2023-02-03T09:06:22;100666.16;;;-3.05;100.00
41250;BME280;26984;59.928;30.306;2023-02-03T09:08:50;100666.97;;;-3.05;100.00
41250;BME280;26984;59.928;30.306;2023-02-03T09:11:17;100657.78;;;-3.10;100.00
41250;BME280;26984;59.928;30.306;2023-02-03T09:13:46;100648.66;;;-3.06;100.00
41250;BME280;26984;59.928;30.306;2023-02-03T09:16:14;100662.09;;;-2.89;100.00
41250;BME280;26984;59.928;30.306;2023-02-03T09:18:42;100660.50;;;-2.80;100.00
41250;BME280;26984;59.928;30.306;2023-02-03T09:21:11;100661.47;;;-2.81;100.00
41250;BME280;26984;59.928;30.306;2023-02-03T09:23:39;100660.81;;;-2.73;100.00
41250;BME280;26984;59.928;30.306;2023-02-03T09:26:07;100660.34;;;-2.57;100.00
41250;BME280;26984;59.928;30.306;2023-02-03T09:28:35;100662.19;;;-2.48;100.00
41250;BME280;26984;59.928;30.306;2023-02-03T09:31:04;100661.03;;;-2.34;100.00
41250;BME280;26984;59.928;30.306;2023-02-03T09:33:32;100658.38;;;-2.34;100.00
41250;BME280;26984;59.928;30.306;2023-02-03T09:35:59;100666.56;;;-2.37;100.00
41250;BME280;26984;59.928;30.306;2023-02-03T09:38:27;100672.28;;;-2.53;100.00
41250;BME280;26984;59.928;30.306;2023-02-03T09:40:55;100671.06;;;-2.49;100.00
41250;BME280;26984;59.928;30.306;2023-02-03T09:43:29;100669.22;;;-2.58;100.00
41250;BME280;26984;59.928;30.306;2023-02-03T09:45:59;100673.53;;;-2.57;100.00
41250;BME280;26984;59.928;30.306;2023-02-03T09:48:30;100671.91;;;-2.49;100.00
41250;BME280;26984;59.928;30.306;2023-02-03T09:50:59;100675.31;;;-2.37;100.00
41250;BME280;26984;59.928;30.306;2023-02-03T09:53:28;100673.91;;;-2.41;100.00
41250;BME280;26984;59.928;30.306;2023-02-03T09:55:57;100674.94;;;-2.53;100.00
41250;BME280;26984;59.928;30.306;2023-02-03T09:58:25;100673.53;;;-2.57;100.00
41250;BME280;26984;59.928;30.306;2023-02-03T10:00:55;100672.25;;;-2.63;100.00
41250;BME280;26984;59.928;30.306;2023-02-03T10:03:26;100681.56;;;-2.59;100.00
41250;BME280;26984;59.928;30.306;2023-02-03T10:05:58;100678.47;;;-2.64;100.00
41250;BME280;26984;59.928;30.306;2023-02-03T10:08:34;100673.09;;;-2.62;100.00
41250;BME280;26984;59.928;30.306;2023-02-03T10:11:07;100672.78;;;-2.69;100.00
41250;BME280;26984;59.928;30.306;2023-02-03T10:13:42;100679.63;;;-2.78;100.00
41250;BME280;26984;59.928;30.306;2023-02-03T10:16:17;100680.88;;;-2.82;100.00
41250;BME280;26984;59.928;30.306;2023-02-03T10:18:49;100685.69;;;-2.87;100.00
41250;BME280;26984;59.928;30.306;2023-02-03T10:21:20;100683.81;;;-2.75;100.00
41250;BME280;26984;59.928;30.306;2023-02-03T10:23:54;100675.34;;;-2.79;100.00
41250;BME280;26984;59.928;30.306;2023-02-03T10:26:24;100684.81;;;-2.76;100.00
41250;BME280;26984;59.928;30.306;2023-02-03T10:28:53;100686.06;;;-2.71;100.00
41250;BME280;26984;59.928;30.306;2023-02-03T10:31:21;100679.38;;;-2.75;100.00
41250;BME280;26984;59.928;30.306;2023-02-03T10:33:52;100682.41;;;-2.79;100.00
41250;BME280;26984;59.928;30.306;2023-02-03T10:36:22;100681.00;;;-2.83;100.00
41250;BME280;26984;59.928;30.306;2023-02-03T10:38:55;100680.09;;;-2.73;100.00
41250;BME280;26984;59.928;30.306;2023-02-03T10:41:24;100676.75;;;-2.75;100.00
41250;BME280;26984;59.928;30.306;2023-02-03T10:43:51;100688.59;;;-2.69;100.00
41250;BME280;26984;59.928;30.306;2023-02-03T10:46:22;100684.66;;;-2.75;100.00
41250;BME280;26984;59.928;30.306;2023-02-03T10:48:52;100692.72;;;-2.76;100.00
41250;BME280;26984;59.928;30.306;2023-02-03T10:51:21;100696.81;;;-2.83;100.00
41250;BME280;26984;59.928;30.306;2023-02-03T10:53:51;100699.31;;;-2.82;100.00
41250;BME280;26984;59.928;30.306;2023-02-03T10:56:20;100698.41;;;-2.92;100.00
41250;BME280;26984;59.928;30.306;2023-02-03T10:58:49;100702.50;;;-2.88;100.00
41250;BME280;26984;59.928;30.306;2023-02-03T11:01:18;100695.41;;;-2.87;100.00
41250;BME280;26984;59.928;30.306;2023-02-03T11:03:53;100702.34;;;-2.86;100.00
41250;BME280;26984;59.928;30.306;2023-02-03T11:06:21;100701.31;;;-2.74;100.00
41250;BME280;26984;59.928;30.306;2023-02-03T11:08:51;100693.53;;;-2.76;100.00
41250;BME280;26984;59.928;30.306;2023-02-03T11:11:22;100697.66;;;-2.83;100.00
41250;BME280;26984;59.928;30.306;2023-02-03T11:13:54;100690.66;;;-2.94;100.00
41250;BME280;26984;59.928;30.306;2023-02-03T11:16:22;100693.19;;;-3.03;100.00
41250;BME280;26984;59.928;30.306;2023-02-03T11:18:51;100690.56;;;-3.03;100.00
41250;BME280;26984;59.928;30.306;2023-02-03T11:21:20;100688.56;;;-3.11;100.00
41250;BME280;26984;59.928;30.306;2023-02-03T11:26:32;100694.41;;;-3.07;100.00
41250;BME280;26984;59.928;30.306;2023-02-03T11:29:01;100691.28;;;-3.01;100.00
41250;BME280;26984;59.928;30.306;2023-02-03T11:31:30;100680.84;;;-3.03;100.00
41250;BME280;26984;59.928;30.306;2023-02-03T11:33:59;100688.41;;;-2.98;100.00
41250;BME280;26984;59.928;30.306;2023-02-03T11:36:28;100697.59;;;-2.93;100.00
41250;BME280;26984;59.928;30.306;2023-02-03T11:41:52;100689.09;;;-2.96;100.00
41250;BME280;26984;59.928;30.306;2023-02-03T11:44:21;100689.09;;;-2.96;100.00
41250;BME280;26984;59.928;30.306;2023-02-03T11:46:50;100692.78;;;-2.87;100.00
41250;BME280;26984;59.928;30.306;2023-02-03T11:49:25;100702.53;;;-2.78;100.00
41250;BME280;26984;59.928;30.306;2023-02-03T11:52:00;100706.72;;;-2.76;100.00
41250;BME280;26984;59.928;30.306;2023-02-03T11:54:33;100704.84;;;-2.64;100.00
41250;BME280;26984;59.928;30.306;2023-02-03T11:57:12;100705.50;;;-2.72;100.00
41250;BME280;26984;59.928;30.306;2023-02-03T11:59:53;100709.28;;;-2.85;100.00
41250;BME280;26984;59.928;30.306;2023-02-03T12:02:36;100714.50;;;-2.95;100.00
41250;BME280;26984;59.928;30.306;2023-02-03T12:05:26;100709.84;;;-3.03;100.00
41250;BME280;26984;59.928;30.306;2023-02-03T12:07:59;100714.75;;;-2.98;100.00
41250;BME280;26984;59.928;30.306;2023-02-03T12:10:36;100720.28;;;-3.01;100.00
41250;BME280;26984;59.928;30.306;2023-02-03T12:13:11;100718.63;;;-3.02;100.00
41250;BME280;26984;59.928;30.306;2023-02-03T12:15:52;100722.25;;;-3.15;100.00
41250;BME280;26984;59.928;30.306;2023-02-03T12:18:32;100729.22;;;-2.93;100.00
41250;BME280;26984;59.928;30.306;2023-02-03T12:21:08;100722.28;;;-2.94;100.00
41250;BME280;26984;59.928;30.306;2023-02-03T12:23:42;100732.91;;;-2.84;100.00
41250;BME280;26984;59.928;30.306;2023-02-03T12:26:15;100727.09;;;-2.78;100.00
41250;BME280;26984;59.928;30.306;2023-02-03T12:28:57;100729.13;;;-2.70;100.00
41250;BME280;26984;59.928;30.306;2023-02-03T12:31:29;100730.66;;;-2.68;100.00
41250;BME280;26984;59.928;30.306;2023-02-03T12:34:03;100743.25;;;-2.71;100.00
41250;BME280;26984;59.928;30.306;2023-02-03T12:36:34;100744.53;;;-2.86;100.00
41250;BME280;26984;59.928;30.306;2023-02-03T12:39:07;100741.38;;;-3.01;100.00
41250;BME280;26984;59.928;30.306;2023-02-03T12:41:39;100743.09;;;-3.11;100.00
41250;BME280;26984;59.928;30.306;2023-02-03T12:44:13;100736.44;;;-3.27;100.00
41250;BME280;26984;59.928;30.306;2023-02-03T12:46:42;100741.22;;;-3.32;100.00
41250;BME280;26984;59.928;30.306;2023-02-03T12:49:12;100748.03;;;-3.29;100.00
41250;BME280;26984;59.928;30.306;2023-02-03T12:51:42;100746.34;;;-3.19;100.00